KPOE/POE METAR and TAF weather

Enter ICAO airport designator
Station Type Date Time Source
KPOE METAR 2019/12/10 05:58 UTC NOAA

KPOE 100558Z AUTO 21006KT 10SM BKN008 OVC016 22/21 A2991 RMK AO2 BKN V OVC SLP128 T02170206 10226 20215 402580159 52010


Station Type Date Time Source
KPOE Decoded METAR 2019/12/10 05:58 UTC NOAA

Fort Polk, Polk AAF Ft Polk, LA, United States (KPOE) 31-03N 093-11-38W
Dec 10, 2019 - 12:58 AM EST / 2019.12.10 0558 UTC
Wind: from the SSW (210 degrees) at 7 MPH (6 KT):0
Visibility: 10 mile(s):0
Sky conditions: overcast
Temperature: 71.1 F (21.7 C)
Dew Point: 69.1 F (20.6 C)
Relative Humidity: 93%
Pressure (altimeter): 29.91 in. Hg (1012 hPa)
Pressure tendency: 0.03 inches (1.0 hPa) higher than three hours ago
ob: KPOE 100558Z AUTO 21006KT 10SM BKN008 OVC016 22/21 A2991 RMK AO2 BKN V OVC SLP128 T02170206 10226 20215 402580159 52010
cycle: 6

Station Type Date Time Source
KPOE TAF 2019/12/10 03:28 UTC NOAA

TAF
AMD KPOE 100320Z 1003/1106 19012KT 9999 OVC007 QNH2988INS
BECMG 1007/1008 33009KT 8000 -SHRA VCTS OVC007CB QNH2990INS
BECMG 1011/1012 31015G25KT 8000 -SHRA OVC009 QNH3000INS
BECMG 1019/1020 01015G20KT 9000 -SHRA BKN008 QNH3010INS
BECMG 1104/1105 01009KT 9999 NSW BKN010 QNH3020INS TX22/1020Z TN06/1100Z

Example: see airport list